sensor_id;sensor_type;location;lat;lon;timestamp;temperature;humidity
22781;DHT22;11557;50.884;4.322;2023-07-08T00:00:13;22.50;99.90
22781;DHT22;11557;50.884;4.322;2023-07-08T00:02:41;22.60;99.90
22781;DHT22;11557;50.884;4.322;2023-07-08T00:05:12;22.60;99.90
22781;DHT22;11557;50.884;4.322;2023-07-08T00:07:39;22.50;99.90
22781;DHT22;11557;50.884;4.322;2023-07-08T00:12:41;22.50;99.90
22781;DHT22;11557;50.884;4.322;2023-07-08T00:15:09;22.30;99.90
22781;DHT22;11557;50.884;4.322;2023-07-08T00:17:35;22.40;99.90
22781;DHT22;11557;50.884;4.322;2023-07-08T00:20:01;22.30;99.90
22781;DHT22;11557;50.884;4.322;2023-07-08T00:22:27;22.30;99.90
22781;DHT22;11557;50.884;4.322;2023-07-08T00:24:53;22.30;99.90
22781;DHT22;11557;50.884;4.322;2023-07-08T00:27:19;22.30;99.90
22781;DHT22;11557;50.884;4.322;2023-07-08T00:29:44;22.20;99.90
22781;DHT22;11557;50.884;4.322;2023-07-08T00:32:13;22.20;99.90
22781;DHT22;11557;50.884;4.322;2023-07-08T00:34:39;22.10;99.90
22781;DHT22;11557;50.884;4.322;2023-07-08T00:37:05;22.20;99.90
22781;DHT22;11557;50.884;4.322;2023-07-08T00:39:32;22.20;99.90
22781;DHT22;11557;50.884;4.322;2023-07-08T00:42:00;22.20;99.90
22781;DHT22;11557;50.884;4.322;2023-07-08T00:44:26;22.20;99.90
22781;DHT22;11557;50.884;4.322;2023-07-08T00:47:07;22.10;99.90
22781;DHT22;11557;50.884;4.322;2023-07-08T00:49:56;22.10;99.90
22781;DHT22;11557;50.884;4.322;2023-07-08T00:52:26;22.00;99.90
22781;DHT22;11557;50.884;4.322;2023-07-08T00:54:53;21.90;99.90
22781;DHT22;11557;50.884;4.322;2023-07-08T00:57:21;21.90;99.90
22781;DHT22;11557;50.884;4.322;2023-07-08T01:00:09;21.90;99.90
22781;DHT22;11557;50.884;4.322;2023-07-08T01:02:49;21.80;99.90
22781;DHT22;11557;50.884;4.322;2023-07-08T01:05:22;21.90;99.90
22781;DHT22;11557;50.884;4.322;2023-07-08T01:07:54;21.80;99.90
22781;DHT22;11557;50.884;4.322;2023-07-08T01:10:30;21.80;99.90
22781;DHT22;11557;50.884;4.322;2023-07-08T01:12:59;21.70;99.90
22781;DHT22;11557;50.884;4.322;2023-07-08T01:15:32;21.70;99.90
22781;DHT22;11557;50.884;4.322;2023-07-08T01:18:01;21.70;99.90
22781;DHT22;11557;50.884;4.322;2023-07-08T01:20:26;21.60;99.90
22781;DHT22;11557;50.884;4.322;2023-07-08T01:22:52;21.70;99.90
22781;DHT22;11557;50.884;4.322;2023-07-08T01:25:18;21.60;99.90
22781;DHT22;11557;50.884;4.322;2023-07-08T01:27:46;21.60;99.90
22781;DHT22;11557;50.884;4.322;2023-07-08T01:30:14;21.60;99.90
22781;DHT22;11557;50.884;4.322;2023-07-08T01:32:48;21.60;99.90
22781;DHT22;11557;50.884;4.322;2023-07-08T01:35:15;21.60;99.90
22781;DHT22;11557;50.884;4.322;2023-07-08T01:37:44;21.50;99.90
22781;DHT22;11557;50.884;4.322;2023-07-08T01:40:28;21.50;99.90
22781;DHT22;11557;50.884;4.322;2023-07-08T01:42:54;21.40;99.90
22781;DHT22;11557;50.884;4.322;2023-07-08T01:45:22;21.50;99.90
22781;DHT22;11557;50.884;4.322;2023-07-08T01:48:01;21.40;99.90
22781;DHT22;11557;50.884;4.322;2023-07-08T01:50:28;21.40;99.90
22781;DHT22;11557;50.884;4.322;2023-07-08T01:52:57;21.40;99.90
22781;DHT22;11557;50.884;4.322;2023-07-08T01:55:24;21.30;99.90
22781;DHT22;11557;50.884;4.322;2023-07-08T01:57:53;21.40;99.90
22781;DHT22;11557;50.884;4.322;2023-07-08T02:00:20;21.40;99.90
22781;DHT22;11557;50.884;4.322;2023-07-08T02:02:46;21.30;99.90
22781;DHT22;11557;50.884;4.322;2023-07-08T02:05:12;21.30;99.90
22781;DHT22;11557;50.884;4.322;2023-07-08T02:07:37;21.30;99.90
22781;DHT22;11557;50.884;4.322;2023-07-08T02:10:03;21.30;99.90
22781;DHT22;11557;50.884;4.322;2023-07-08T02:12:29;21.30;99.90
22781;DHT22;11557;50.884;4.322;2023-07-08T02:14:55;21.20;99.90
22781;DHT22;11557;50.884;4.322;2023-07-08T02:17:20;21.10;99.90
22781;DHT22;11557;50.884;4.322;2023-07-08T02:19:46;21.20;99.90
22781;DHT22;11557;50.884;4.322;2023-07-08T02:22:11;21.20;99.90
22781;DHT22;11557;50.884;4.322;2023-07-08T02:24:37;21.20;99.90
22781;DHT22;11557;50.884;4.322;2023-07-08T02:27:03;21.20;99.90
22781;DHT22;11557;50.884;4.322;2023-07-08T02:29:28;21.20;99.90
22781;DHT22;11557;50.884;4.322;2023-07-08T02:31:54;21.20;99.90
22781;DHT22;11557;50.884;4.322;2023-07-08T02:34:20;21.10;99.90
22781;DHT22;11557;50.884;4.322;2023-07-08T02:36:46;21.10;99.90
22781;DHT22;11557;50.884;4.322;2023-07-08T02:39:11;21.10;99.90
22781;DHT22;11557;50.884;4.322;2023-07-08T02:41:37;21.10;99.90
22781;DHT22;11557;50.884;4.322;2023-07-08T02:44:03;21.00;99.90
22781;DHT22;11557;50.884;4.322;2023-07-08T02:46:29;21.00;99.90
22781;DHT22;11557;50.884;4.322;2023-07-08T02:48:54;20.90;99.90
22781;DHT22;11557;50.884;4.322;2023-07-08T02:51:20;20.90;99.90
22781;DHT22;11557;50.884;4.322;2023-07-08T02:53:46;21.00;99.90
22781;DHT22;11557;50.884;4.322;2023-07-08T02:56:12;21.10;99.90
22781;DHT22;11557;50.884;4.322;2023-07-08T02:58:37;21.00;99.90
22781;DHT22;11557;50.884;4.322;2023-07-08T03:01:03;21.00;99.90
22781;DHT22;11557;50.884;4.322;2023-07-08T03:03:29;21.00;99.90
22781;DHT22;11557;50.884;4.322;2023-07-08T03:08:21;20.90;99.90
22781;DHT22;11557;50.884;4.322;2023-07-08T03:10:58;20.80;99.90
22781;DHT22;11557;50.884;4.322;2023-07-08T03:13:24;20.80;99.90
22781;DHT22;11557;50.884;4.322;2023-07-08T03:15:50;20.80;99.90
22781;DHT22;11557;50.884;4.322;2023-07-08T03:18:19;20.80;99.90
22781;DHT22;11557;50.884;4.322;2023-07-08T03:20:48;20.80;99.90
22781;DHT22;11557;50.884;4.322;2023-07-08T03:23:13;20.70;99.90
22781;DHT22;11557;50.884;4.322;2023-07-08T03:25:39;20.70;99.90
22781;DHT22;11557;50.884;4.322;2023-07-08T03:28:06;20.70;99.90
22781;DHT22;11557;50.884;4.322;2023-07-08T03:30:33;20.70;99.90
22781;DHT22;11557;50.884;4.322;2023-07-08T03:32:59;20.80;99.90
22781;DHT22;11557;50.884;4.322;2023-07-08T03:35:25;20.80;99.90
22781;DHT22;11557;50.884;4.322;2023-07-08T03:37:51;20.80;99.90
22781;DHT22;11557;50.884;4.322;2023-07-08T03:40:17;20.80;99.90
22781;DHT22;11557;50.884;4.322;2023-07-08T03:42:43;20.90;99.90
22781;DHT22;11557;50.884;4.322;2023-07-08T03:45:09;21.00;99.90
22781;DHT22;11557;50.884;4.322;2023-07-08T03:47:35;20.90;99.90
22781;DHT22;11557;50.884;4.322;2023-07-08T03:50:01;20.80;99.90
22781;DHT22;11557;50.884;4.322;2023-07-08T03:52:27;20.80;99.90
22781;DHT22;11557;50.884;4.322;2023-07-08T03:54:52;20.80;99.90
22781;DHT22;11557;50.884;4.322;2023-07-08T03:57:18;20.80;99.90
22781;DHT22;11557;50.884;4.322;2023-07-08T03:59:43;20.80;99.90
22781;DHT22;11557;50.884;4.322;2023-07-08T04:02:12;20.70;99.90
22781;DHT22;11557;50.884;4.322;2023-07-08T04:04:38;20.80;99.90
22781;DHT22;11557;50.884;4.322;2023-07-08T04:07:07;20.80;99.90
22781;DHT22;11557;50.884;4.322;2023-07-08T04:09:33;20.70;99.90
22781;DHT22;11557;50.884;4.322;2023-07-08T04:11:58;20.70;99.90
22781;DHT22;11557;50.884;4.322;2023-07-08T04:14:25;20.70;99.90
22781;DHT22;11557;50.884;4.322;2023-07-08T04:16:54;20.80;99.90
22781;DHT22;11557;50.884;4.322;2023-07-08T04:19:22;20.70;99.90
22781;DHT22;11557;50.884;4.322;2023-07-08T04:21:48;20.80;99.90
22781;DHT22;11557;50.884;4.322;2023-07-08T04:24:15;20.90;99.90
22781;DHT22;11557;50.884;4.322;2023-07-08T04:26:42;20.80;99.90
22781;DHT22;11557;50.884;4.322;2023-07-08T04:29:16;20.80;99.90
22781;DHT22;11557;50.884;4.322;2023-07-08T04:31:42;20.80;99.90
22781;DHT22;11557;50.884;4.322;2023-07-08T04:34:08;20.90;99.90
22781;DHT22;11557;50.884;4.322;2023-07-08T04:36:34;20.90;99.90
22781;DHT22;11557;50.884;4.322;2023-07-08T04:39:01;20.90;99.90
22781;DHT22;11557;50.884;4.322;2023-07-08T04:41:27;20.80;99.90
22781;DHT22;11557;50.884;4.322;2023-07-08T04:43:53;20.80;99.90
22781;DHT22;11557;50.884;4.322;2023-07-08T04:46:31;20.70;99.90
22781;DHT22;11557;50.884;4.322;2023-07-08T04:49:01;20.70;99.90
22781;DHT22;11557;50.884;4.322;2023-07-08T04:51:26;20.80;99.90
22781;DHT22;11557;50.884;4.322;2023-07-08T04:53:52;20.80;99.90
22781;DHT22;11557;50.884;4.322;2023-07-08T04:56:17;20.90;99.90
22781;DHT22;11557;50.884;4.322;2023-07-08T04:58:44;21.00;99.90
22781;DHT22;11557;50.884;4.322;2023-07-08T05:01:10;20.90;99.90
22781;DHT22;11557;50.884;4.322;2023-07-08T05:03:35;20.90;99.90
22781;DHT22;11557;50.884;4.322;2023-07-08T05:06:01;20.90;99.90
22781;DHT22;11557;50.884;4.322;2023-07-08T05:08:27;20.90;99.90
22781;DHT22;11557;50.884;4.322;2023-07-08T05:10:52;21.10;99.90
22781;DHT22;11557;50.884;4.322;2023-07-08T05:13:18;21.10;99.90
22781;DHT22;11557;50.884;4.322;2023-07-08T05:15:43;21.10;99.90
22781;DHT22;11557;50.884;4.322;2023-07-08T05:18:09;21.10;99.90
22781;DHT22;11557;50.884;4.322;2023-07-08T05:20:34;21.20;99.90
22781;DHT22;11557;50.884;4.322;2023-07-08T05:23:02;21.30;99.90
22781;DHT22;11557;50.884;4.322;2023-07-08T05:25:30;21.20;99.90
22781;DHT22;11557;50.884;4.322;2023-07-08T05:27:57;21.30;99.90
22781;DHT22;11557;50.884;4.322;2023-07-08T05:30:23;21.30;99.90
22781;DHT22;11557;50.884;4.322;2023-07-08T05:32:49;21.40;99.90
22781;DHT22;11557;50.884;4.322;2023-07-08T05:35:14;21.40;99.90
22781;DHT22;11557;50.884;4.322;2023-07-08T05:37:40;21.50;99.90
22781;DHT22;11557;50.884;4.322;2023-07-08T05:40:08;21.40;99.90
22781;DHT22;11557;50.884;4.322;2023-07-08T05:42:34;21.50;99.90
22781;DHT22;11557;50.884;4.322;2023-07-08T05:44:59;21.50;99.90
22781;DHT22;11557;50.884;4.322;2023-07-08T05:47:25;21.60;99.90
22781;DHT22;11557;50.884;4.322;2023-07-08T05:49:51;21.60;99.90
22781;DHT22;11557;50.884;4.322;2023-07-08T05:52:16;21.70;99.90
22781;DHT22;11557;50.884;4.322;2023-07-08T05:54:42;21.70;99.90
22781;DHT22;11557;50.884;4.322;2023-07-08T05:57:10;21.80;99.90
22781;DHT22;11557;50.884;4.322;2023-07-08T05:59:36;21.90;99.90
22781;DHT22;11557;50.884;4.322;2023-07-08T06:02:04;21.90;99.90
22781;DHT22;11557;50.884;4.322;2023-07-08T06:04:30;22.00;99.90
22781;DHT22;11557;50.884;4.322;2023-07-08T06:06:56;22.00;99.90
22781;DHT22;11557;50.884;4.322;2023-07-08T06:09:22;22.10;99.90
22781;DHT22;11557;50.884;4.322;2023-07-08T06:11:48;22.20;99.90
22781;DHT22;11557;50.884;4.322;2023-07-08T06:14:14;22.20;99.90
22781;DHT22;11557;50.884;4.322;2023-07-08T06:16:39;22.30;99.90
22781;DHT22;11557;50.884;4.322;2023-07-08T06:19:05;22.30;99.90
22781;DHT22;11557;50.884;4.322;2023-07-08T06:21:31;22.30;99.90
22781;DHT22;11557;50.884;4.322;2023-07-08T06:23:57;22.40;99.90
22781;DHT22;11557;50.884;4.322;2023-07-08T06:26:22;22.40;99.90
22781;DHT22;11557;50.884;4.322;2023-07-08T06:28:49;22.50;99.90
22781;DHT22;11557;50.884;4.322;2023-07-08T06:31:15;22.60;99.90
22781;DHT22;11557;50.884;4.322;2023-07-08T06:33:42;22.60;99.90
22781;DHT22;11557;50.884;4.322;2023-07-08T06:36:08;22.70;99.90
22781;DHT22;11557;50.884;4.322;2023-07-08T06:38:34;22.80;99.90
22781;DHT22;11557;50.884;4.322;2023-07-08T06:41:00;22.80;99.90
22781;DHT22;11557;50.884;4.322;2023-07-08T06:43:25;22.90;99.90
22781;DHT22;11557;50.884;4.322;2023-07-08T06:45:51;23.00;99.90
22781;DHT22;11557;50.884;4.322;2023-07-08T06:48:17;24.60;99.90
22781;DHT22;11557;50.884;4.322;2023-07-08T06:50:46;28.00;99.90
22781;DHT22;11557;50.884;4.322;2023-07-08T06:53:13;31.70;99.90
22781;DHT22;11557;50.884;4.322;2023-07-08T06:55:38;34.80;99.90
22781;DHT22;11557;50.884;4.322;2023-07-08T06:58:04;37.10;99.90
22781;DHT22;11557;50.884;4.322;2023-07-08T07:00:30;39.00;99.90
22781;DHT22;11557;50.884;4.322;2023-07-08T07:02:55;40.50;98.70
22781;DHT22;11557;50.884;4.322;2023-07-08T07:05:21;41.70;94.30
22781;DHT22;11557;50.884;4.322;2023-07-08T07:07:46;42.70;91.90
22781;DHT22;11557;50.884;4.322;2023-07-08T07:10:12;43.50;88.30
22781;DHT22;11557;50.884;4.322;2023-07-08T07:12:38;44.50;84.60
22781;DHT22;11557;50.884;4.322;2023-07-08T07:15:04;45.40;84.40
22781;DHT22;11557;50.884;4.322;2023-07-08T07:17:30;45.90;82.80
22781;DHT22;11557;50.884;4.322;2023-07-08T07:19:56;46.40;81.90
22781;DHT22;11557;50.884;4.322;2023-07-08T07:22:22;46.90;79.10
22781;DHT22;11557;50.884;4.322;2023-07-08T07:24:48;47.20;73.20
22781;DHT22;11557;50.884;4.322;2023-07-08T07:27:14;47.60;75.00
22781;DHT22;11557;50.884;4.322;2023-07-08T07:29:45;48.10;74.90
22781;DHT22;11557;50.884;4.322;2023-07-08T07:32:11;48.30;73.00
22781;DHT22;11557;50.884;4.322;2023-07-08T07:34:38;48.70;70.60
22781;DHT22;11557;50.884;4.322;2023-07-08T07:37:05;48.90;72.20
22781;DHT22;11557;50.884;4.322;2023-07-08T07:39:30;49.10;71.00
22781;DHT22;11557;50.884;4.322;2023-07-08T07:41:56;49.30;69.80
22781;DHT22;11557;50.884;4.322;2023-07-08T07:44:22;49.60;69.90
22781;DHT22;11557;50.884;4.322;2023-07-08T07:46:47;49.70;69.90
22781;DHT22;11557;50.884;4.322;2023-07-08T07:49:13;49.70;69.20
22781;DHT22;11557;50.884;4.322;2023-07-08T07:51:39;49.70;66.70
22781;DHT22;11557;50.884;4.322;2023-07-08T07:54:05;49.80;67.20
22781;DHT22;11557;50.884;4.322;2023-07-08T07:56:30;49.70;66.50
22781;DHT22;11557;50.884;4.322;2023-07-08T07:58:57;49.80;65.70
22781;DHT22;11557;50.884;4.322;2023-07-08T08:01:22;49.70;65.40
22781;DHT22;11557;50.884;4.322;2023-07-08T08:03:48;49.60;63.10
22781;DHT22;11557;50.884;4.322;2023-07-08T08:06:17;49.60;63.80
22781;DHT22;11557;50.884;4.322;2023-07-08T08:08:46;49.10;64.00
22781;DHT22;11557;50.884;4.322;2023-07-08T08:11:13;49.20;64.00
22781;DHT22;11557;50.884;4.322;2023-07-08T08:13:38;49.10;61.10
22781;DHT22;11557;50.884;4.322;2023-07-08T08:16:04;49.00;63.60
22781;DHT22;11557;50.884;4.322;2023-07-08T08:18:30;49.00;60.30
22781;DHT22;11557;50.884;4.322;2023-07-08T08:20:56;48.80;64.00
22781;DHT22;11557;50.884;4.322;2023-07-08T08:23:22;49.00;65.40
22781;DHT22;11557;50.884;4.322;2023-07-08T08:25:47;49.00;59.40
22781;DHT22;11557;50.884;4.322;2023-07-08T08:28:13;49.10;62.00
22781;DHT22;11557;50.884;4.322;2023-07-08T08:30:39;48.90;62.60
22781;DHT22;11557;50.884;4.322;2023-07-08T08:33:04;47.90;57.00
22781;DHT22;11557;50.884;4.322;2023-07-08T08:35:30;47.50;57.20
22781;DHT22;11557;50.884;4.322;2023-07-08T08:37:56;47.80;60.10
22781;DHT22;11557;50.884;4.322;2023-07-08T08:40:21;47.60;58.80
22781;DHT22;11557;50.884;4.322;2023-07-08T08:45:19;47.00;56.50
22781;DHT22;11557;50.884;4.322;2023-07-08T08:48:03;46.30;57.90
22781;DHT22;11557;50.884;4.322;2023-07-08T08:50:45;45.60;58.10
22781;DHT22;11557;50.884;4.322;2023-07-08T08:53:13;44.80;58.60
22781;DHT22;11557;50.884;4.322;2023-07-08T08:55:40;45.10;62.40
22781;DHT22;11557;50.884;4.322;2023-07-08T09:00:58;45.70;59.40
22781;DHT22;11557;50.884;4.322;2023-07-08T09:03:49;45.70;62.20
22781;DHT22;11557;50.884;4.322;2023-07-08T09:06:35;45.60;57.90
22781;DHT22;11557;50.884;4.322;2023-07-08T09:09:09;45.30;59.70
22781;DHT22;11557;50.884;4.322;2023-07-08T09:12:00;45.80;60.00
22781;DHT22;11557;50.884;4.322;2023-07-08T09:14:29;45.80;60.60
22781;DHT22;11557;50.884;4.322;2023-07-08T09:17:28;46.00;61.80
22781;DHT22;11557;50.884;4.322;2023-07-08T09:22:35;44.60;59.80
22781;DHT22;11557;50.884;4.322;2023-07-08T09:27:31;43.30;58.40
22781;DHT22;11557;50.884;4.322;2023-07-08T09:29:57;42.80;60.70
22781;DHT22;11557;50.884;4.322;2023-07-08T09:32:26;42.90;63.50
22781;DHT22;11557;50.884;4.322;2023-07-08T09:35:02;43.20;62.80
22781;DHT22;11557;50.884;4.322;2023-07-08T09:37:31;43.50;63.70
22781;DHT22;11557;50.884;4.322;2023-07-08T09:39:59;43.80;63.80
22781;DHT22;11557;50.884;4.322;2023-07-08T09:42:31;43.90;62.60
22781;DHT22;11557;50.884;4.322;2023-07-08T09:44:59;43.70;61.80
22781;DHT22;11557;50.884;4.322;2023-07-08T09:47:29;43.80;65.80
22781;DHT22;11557;50.884;4.322;2023-07-08T09:49:57;44.00;68.70
22781;DHT22;11557;50.884;4.322;2023-07-08T09:52:23;43.70;61.20
22781;DHT22;11557;50.884;4.322;2023-07-08T09:54:49;43.80;62.60
22781;DHT22;11557;50.884;4.322;2023-07-08T09:57:29;43.30;60.60
22781;DHT22;11557;50.884;4.322;2023-07-08T10:00:00;43.30;64.10
22781;DHT22;11557;50.884;4.322;2023-07-08T10:02:54;43.00;62.50
22781;DHT22;11557;50.884;4.322;2023-07-08T10:05:34;42.70;61.50
22781;DHT22;11557;50.884;4.322;2023-07-08T10:08:03;42.50;62.30
22781;DHT22;11557;50.884;4.322;2023-07-08T10:10:37;42.30;62.30
22781;DHT22;11557;50.884;4.322;2023-07-08T10:13:26;42.30;66.00
22781;DHT22;11557;50.884;4.322;2023-07-08T10:16:23;42.20;69.60
22781;DHT22;11557;50.884;4.322;2023-07-08T10:18:46;42.00;65.60
22781;DHT22;11557;50.884;4.322;2023-07-08T10:26:36;41.10;63.80
22781;DHT22;11557;50.884;4.322;2023-07-08T10:29:47;41.10;71.30
22781;DHT22;11557;50.884;4.322;2023-07-08T10:36:08;40.80;68.30
22781;DHT22;11557;50.884;4.322;2023-07-08T10:41:04;40.70;65.70
22781;DHT22;11557;50.884;4.322;2023-07-08T10:43:48;40.70;66.30
22781;DHT22;11557;50.884;4.322;2023-07-08T10:46:41;40.70;68.10
22781;DHT22;11557;50.884;4.322;2023-07-08T10:59:57;39.80;69.30
22781;DHT22;11557;50.884;4.322;2023-07-08T11:03:03;40.00;69.30
22781;DHT22;11557;50.884;4.322;2023-07-08T11:05:33;40.10;70.20
22781;DHT22;11557;50.884;4.322;2023-07-08T11:08:10;39.50;67.30
22781;DHT22;11557;50.884;4.322;2023-07-08T11:13:14;39.60;71.70
22781;DHT22;11557;50.884;4.322;2023-07-08T11:18:20;39.70;68.20
22781;DHT22;11557;50.884;4.322;2023-07-08T11:23:45;39.60;65.50
22781;DHT22;11557;50.884;4.322;2023-07-08T11:26:19;39.60;67.10
22781;DHT22;11557;50.884;4.322;2023-07-08T11:28:48;39.70;72.60
22781;DHT22;11557;50.884;4.322;2023-07-08T11:31:16;39.80;67.30
22781;DHT22;11557;50.884;4.322;2023-07-08T11:33:43;39.60;66.10
22781;DHT22;11557;50.884;4.322;2023-07-08T11:36:10;39.40;68.10
22781;DHT22;11557;50.884;4.322;2023-07-08T11:38:37;39.20;70.20
22781;DHT22;11557;50.884;4.322;2023-07-08T11:41:15;39.30;68.60
22781;DHT22;11557;50.884;4.322;2023-07-08T11:44:04;39.40;73.00
22781;DHT22;11557;50.884;4.322;2023-07-08T11:46:33;39.30;74.30
22781;DHT22;11557;50.884;4.322;2023-07-08T11:49:05;39.10;69.90
22781;DHT22;11557;50.884;4.322;2023-07-08T11:51:39;39.20;70.30
22781;DHT22;11557;50.884;4.322;2023-07-08T11:54:28;39.20;70.20
22781;DHT22;11557;50.884;4.322;2023-07-08T11:57:05;38.60;71.50
22781;DHT22;11557;50.884;4.322;2023-07-08T11:59:38;38.60;72.70
22781;DHT22;11557;50.884;4.322;2023-07-08T12:02:17;37.90;70.30
22781;DHT22;11557;50.884;4.322;2023-07-08T12:05:00;38.00;71.40
22781;DHT22;11557;50.884;4.322;2023-07-08T12:07:36;38.30;72.50
22781;DHT22;11557;50.884;4.322;2023-07-08T12:10:16;38.70;75.30
22781;DHT22;11557;50.884;4.322;2023-07-08T12:12:44;38.90;75.30
22781;DHT22;11557;50.884;4.322;2023-07-08T12:15:19;39.10;75.10
22781;DHT22;11557;50.884;4.322;2023-07-08T12:17:46;39.40;73.30
22781;DHT22;11557;50.884;4.322;2023-07-08T12:20:34;39.30;75.70
22781;DHT22;11557;50.884;4.322;2023-07-08T12:23:00;38.80;72.40
22781;DHT22;11557;50.884;4.322;2023-07-08T12:25:31;38.50;72.50
22781;DHT22;11557;50.884;4.322;2023-07-08T12:27:58;38.00;74.30
22781;DHT22;11557;50.884;4.322;2023-07-08T12:30:23;37.80;74.60
22781;DHT22;11557;50.884;4.322;2023-07-08T12:32:51;37.70;75.00
22781;DHT22;11557;50.884;4.322;2023-07-08T12:35:23;37.50;74.30
22781;DHT22;11557;50.884;4.322;2023-07-08T12:37:55;37.20;78.30
22781;DHT22;11557;50.884;4.322;2023-07-08T12:40:23;37.20;76.70
22781;DHT22;11557;50.884;4.322;2023-07-08T12:42:49;37.50;78.10
22781;DHT22;11557;50.884;4.322;2023-07-08T12:45:17;37.60;78.30
22781;DHT22;11557;50.884;4.322;2023-07-08T12:47:44;37.50;79.80
22781;DHT22;11557;50.884;4.322;2023-07-08T12:50:11;37.20;79.40
22781;DHT22;11557;50.884;4.322;2023-07-08T12:52:37;36.80;76.00
22781;DHT22;11557;50.884;4.322;2023-07-08T12:55:03;36.30;77.70
22781;DHT22;11557;50.884;4.322;2023-07-08T12:57:28;36.00;78.50
22781;DHT22;11557;50.884;4.322;2023-07-08T12:59:54;35.80;79.60
22781;DHT22;11557;50.884;4.322;2023-07-08T13:02:21;35.60;83.30
22781;DHT22;11557;50.884;4.322;2023-07-08T13:04:53;35.50;84.30
22781;DHT22;11557;50.884;4.322;2023-07-08T13:07:41;35.00;86.30
22781;DHT22;11557;50.884;4.322;2023-07-08T13:10:21;34.80;87.50
22781;DHT22;11557;50.884;4.322;2023-07-08T13:12:51;34.50;89.20
22781;DHT22;11557;50.884;4.322;2023-07-08T13:15:23;34.00;88.90
22781;DHT22;11557;50.884;4.322;2023-07-08T13:17:51;33.70;90.10
22781;DHT22;11557;50.884;4.322;2023-07-08T13:20:17;33.40;89.50
22781;DHT22;11557;50.884;4.322;2023-07-08T13:22:54;32.90;93.10
22781;DHT22;11557;50.884;4.322;2023-07-08T13:25:26;32.30;95.30
22781;DHT22;11557;50.884;4.322;2023-07-08T13:27:58;31.80;96.90
22781;DHT22;11557;50.884;4.322;2023-07-08T13:30:26;31.60;97.70
22781;DHT22;11557;50.884;4.322;2023-07-08T13:32:59;31.40;97.00
22781;DHT22;11557;50.884;4.322;2023-07-08T13:35:34;31.30;96.80
22781;DHT22;11557;50.884;4.322;2023-07-08T13:38:02;31.20;96.90
22781;DHT22;11557;50.884;4.322;2023-07-08T13:40:29;31.30;98.30
22781;DHT22;11557;50.884;4.322;2023-07-08T13:42:55;31.30;98.20
22781;DHT22;11557;50.884;4.322;2023-07-08T13:45:29;31.40;98.60
22781;DHT22;11557;50.884;4.322;2023-07-08T13:48:12;31.60;99.90
22781;DHT22;11557;50.884;4.322;2023-07-08T13:51:02;31.90;99.90
22781;DHT22;11557;50.884;4.322;2023-07-08T13:58:46;32.60;99.30
22781;DHT22;11557;50.884;4.322;2023-07-08T14:01:23;32.90;99.90
22781;DHT22;11557;50.884;4.322;2023-07-08T14:03:50;33.30;99.90
22781;DHT22;11557;50.884;4.322;2023-07-08T14:06:22;33.50;99.90
22781;DHT22;11557;50.884;4.322;2023-07-08T14:08:48;33.90;98.30
22781;DHT22;11557;50.884;4.322;2023-07-08T14:11:13;34.20;99.90
22781;DHT22;11557;50.884;4.322;2023-07-08T14:13:39;34.70;98.10
22781;DHT22;11557;50.884;4.322;2023-07-08T14:16:32;35.10;95.10
22781;DHT22;11557;50.884;4.322;2023-07-08T14:19:01;35.30;96.50
22781;DHT22;11557;50.884;4.322;2023-07-08T14:21:30;35.40;94.50
22781;DHT22;11557;50.884;4.322;2023-07-08T14:23:55;35.40;96.20
22781;DHT22;11557;50.884;4.322;2023-07-08T14:26:22;35.40;93.30
22781;DHT22;11557;50.884;4.322;2023-07-08T14:28:47;35.10;91.90
22781;DHT22;11557;50.884;4.322;2023-07-08T14:31:17;35.10;91.20
22781;DHT22;11557;50.884;4.322;2023-07-08T14:33:44;35.00;90.60
22781;DHT22;11557;50.884;4.322;2023-07-08T14:36:11;34.90;90.50
22781;DHT22;11557;50.884;4.322;2023-07-08T14:38:37;34.80;92.40
22781;DHT22;11557;50.884;4.322;2023-07-08T14:41:04;34.50;92.60
22781;DHT22;11557;50.884;4.322;2023-07-08T14:43:31;34.30;92.80
22781;DHT22;11557;50.884;4.322;2023-07-08T14:45:59;34.40;94.20
22781;DHT22;11557;50.884;4.322;2023-07-08T14:48:28;34.20;94.40
22781;DHT22;11557;50.884;4.322;2023-07-08T14:50:54;34.10;92.40
22781;DHT22;11557;50.884;4.322;2023-07-08T14:53:20;34.20;91.30
22781;DHT22;11557;50.884;4.322;2023-07-08T14:55:48;34.60;92.60
22781;DHT22;11557;50.884;4.322;2023-07-08T14:58:29;34.80;91.10
22781;DHT22;11557;50.884;4.322;2023-07-08T15:00:58;35.00;90.10
22781;DHT22;11557;50.884;4.322;2023-07-08T15:03:25;35.10;91.30
22781;DHT22;11557;50.884;4.322;2023-07-08T15:05:51;35.20;90.20
22781;DHT22;11557;50.884;4.322;2023-07-08T15:08:17;35.30;89.80
22781;DHT22;11557;50.884;4.322;2023-07-08T15:10:47;35.30;88.20
22781;DHT22;11557;50.884;4.322;2023-07-08T15:13:14;35.40;90.40
22781;DHT22;11557;50.884;4.322;2023-07-08T15:15:40;35.40;88.90
22781;DHT22;11557;50.884;4.322;2023-07-08T15:18:14;35.40;89.90
22781;DHT22;11557;50.884;4.322;2023-07-08T15:20:41;35.30;89.30
22781;DHT22;11557;50.884;4.322;2023-07-08T15:23:09;34.90;89.60
22781;DHT22;11557;50.884;4.322;2023-07-08T15:25:36;34.90;90.30
22781;DHT22;11557;50.884;4.322;2023-07-08T15:28:02;35.00;89.70
22781;DHT22;11557;50.884;4.322;2023-07-08T15:30:29;34.90;90.90
22781;DHT22;11557;50.884;4.322;2023-07-08T15:32:56;35.00;90.70
22781;DHT22;11557;50.884;4.322;2023-07-08T15:35:26;35.30;90.90
22781;DHT22;11557;50.884;4.322;2023-07-08T15:37:56;35.40;91.10
22781;DHT22;11557;50.884;4.322;2023-07-08T15:40:23;35.40;90.90
22781;DHT22;11557;50.884;4.322;2023-07-08T15:42:55;35.20;90.30
22781;DHT22;11557;50.884;4.322;2023-07-08T15:45:47;35.20;90.60
22781;DHT22;11557;50.884;4.322;2023-07-08T15:48:16;35.20;90.70
22781;DHT22;11557;50.884;4.322;2023-07-08T15:50:43;35.10;91.10
22781;DHT22;11557;50.884;4.322;2023-07-08T15:53:09;34.90;91.20
22781;DHT22;11557;50.884;4.322;2023-07-08T15:55:38;34.40;91.30
22781;DHT22;11557;50.884;4.322;2023-07-08T15:58:15;34.50;92.10
22781;DHT22;11557;50.884;4.322;2023-07-08T16:00:44;34.60;92.40
22781;DHT22;11557;50.884;4.322;2023-07-08T16:03:25;34.60;91.80
22781;DHT22;11557;50.884;4.322;2023-07-08T16:05:52;34.80;92.50
22781;DHT22;11557;50.884;4.322;2023-07-08T16:08:19;34.40;95.10
22781;DHT22;11557;50.884;4.322;2023-07-08T16:10:50;34.40;95.30
22781;DHT22;11557;50.884;4.322;2023-07-08T16:13:21;34.00;96.20
22781;DHT22;11557;50.884;4.322;2023-07-08T16:15:48;33.80;96.90
22781;DHT22;11557;50.884;4.322;2023-07-08T16:18:13;33.60;97.90
22781;DHT22;11557;50.884;4.322;2023-07-08T16:20:39;33.40;99.20
22781;DHT22;11557;50.884;4.322;2023-07-08T16:23:05;33.40;99.90
22781;DHT22;11557;50.884;4.322;2023-07-08T16:25:33;33.20;99.90
22781;DHT22;11557;50.884;4.322;2023-07-08T16:28:04;33.20;99.90
22781;DHT22;11557;50.884;4.322;2023-07-08T16:30:30;33.30;99.90
22781;DHT22;11557;50.884;4.322;2023-07-08T16:32:56;33.30;99.90